createdAt,value
2019-04-14T00:00:49.485Z,69.00
2019-04-14T00:03:34.746Z,68.80
2019-04-14T00:06:06.859Z,69.20
2019-04-14T00:08:37.213Z,68.90
2019-04-14T00:11:06.157Z,69.00
2019-04-14T00:13:34.988Z,69.60
2019-04-14T00:16:03.553Z,69.60
2019-04-14T00:18:32.228Z,69.60
2019-04-14T00:21:00.540Z,69.80
2019-04-14T00:23:30.365Z,69.50
2019-04-14T00:26:31.632Z,69.50
2019-04-14T00:29:00.277Z,69.70
2019-04-14T00:31:30.926Z,69.20
2019-04-14T00:34:09.298Z,70.10
2019-04-14T00:36:43.758Z,69.70
2019-04-14T00:39:20.484Z,69.60
2019-04-14T00:41:54.962Z,69.70
2019-04-14T00:44:41.056Z,69.70
2019-04-14T00:47:17.980Z,69.80
2019-04-14T00:49:46.628Z,69.70
2019-04-14T00:52:15.361Z,70.00
2019-04-14T00:54:43.993Z,70.00
2019-04-14T00:57:13.680Z,70.20
2019-04-14T00:59:42.202Z,69.80
2019-04-14T01:02:10.898Z,70.40
2019-04-14T01:04:40.413Z,70.50
2019-04-14T01:07:09.158Z,70.80
2019-04-14T01:09:37.745Z,70.70
2019-04-14T01:12:06.449Z,70.60
2019-04-14T01:14:35.120Z,70.70
2019-04-14T01:17:04.786Z,70.60
2019-04-14T01:19:33.352Z,70.80
2019-04-14T01:22:03.110Z,70.80
2019-04-14T01:24:31.893Z,70.60
2019-04-14T01:27:00.213Z,70.80
2019-04-14T01:29:29.752Z,70.30
2019-04-14T01:31:58.393Z,70.90
2019-04-14T01:34:28.098Z,71.30
2019-04-14T01:36:56.649Z,71.20
2019-04-14T01:39:26.414Z,71.20
2019-04-14T01:41:56.322Z,71.20
2019-04-14T01:44:26.322Z,71.40
2019-04-14T01:46:55.014Z,72.30
2019-04-14T01:49:24.720Z,71.90
2019-04-14T01:52:12.407Z,71.60
2019-04-14T01:54:45.734Z,72.00
2019-04-14T01:57:16.121Z,72.00
2019-04-14T02:00:07.537Z,72.00
2019-04-14T02:02:36.341Z,72.60
2019-04-14T02:05:05.966Z,72.30
2019-04-14T02:07:34.528Z,72.00
2019-04-14T02:10:03.975Z,72.10
2019-04-14T02:12:32.640Z,72.20
2019-04-14T02:15:02.867Z,72.30
2019-04-14T02:17:32.720Z,72.20
2019-04-14T02:20:03.337Z,72.70
2019-04-14T02:22:33.354Z,72.90
2019-04-14T02:25:21.241Z,72.80
2019-04-14T02:27:49.869Z,72.90
2019-04-14T02:30:23.039Z,72.60
2019-04-14T02:33:17.209Z,72.50
2019-04-14T02:35:47.128Z,72.80
2019-04-14T02:38:31.060Z,73.50
2019-04-14T02:41:07.374Z,72.80
2019-04-14T02:43:23.687Z,72.90
2019-04-14T02:45:50.113Z,73.10
2019-04-14T02:48:31.794Z,73.30
2019-04-14T02:50:48.219Z,73.40
2019-04-14T02:55:49.136Z,74.10
2019-04-14T02:58:20.342Z,73.30
2019-04-14T03:00:48.707Z,73.90
2019-04-14T03:03:25.722Z,73.40
2019-04-14T03:05:53.238Z,73.10
2019-04-14T03:10:47.521Z,73.80
2019-04-14T03:16:15.245Z,74.00
2019-04-14T03:21:14.759Z,73.20
2019-04-14T03:23:40.604Z,73.50
2019-04-14T03:26:15.338Z,73.10
2019-04-14T03:29:13.151Z,73.10
2019-04-14T03:31:52.684Z,73.10
2019-04-14T03:34:12.977Z,73.20
2019-04-14T03:36:58.289Z,73.40
2019-04-14T03:38:59.943Z,74.10
2019-04-14T03:43:46.356Z,73.70
2019-04-14T03:48:57.971Z,73.70
2019-04-14T03:51:36.986Z,73.80
2019-04-14T03:53:53.164Z,73.70
2019-04-14T03:56:07.719Z,73.80
2019-04-14T03:58:34.260Z,74.10
2019-04-14T04:01:02.563Z,73.60
2019-04-14T04:03:32.407Z,73.60
2019-04-14T04:06:01.151Z,74.70
2019-04-14T04:08:29.465Z,74.20
2019-04-14T04:10:59.985Z,73.80
2019-04-14T04:13:28.456Z,74.20
2019-04-14T04:15:58.756Z,74.10
2019-04-14T04:18:28.804Z,74.20
2019-04-14T04:21:05.263Z,75.00
2019-04-14T04:23:42.449Z,75.00
2019-04-14T04:26:12.844Z,74.40
2019-04-14T04:28:49.676Z,74.70
2019-04-14T04:31:20.099Z,74.60
2019-04-14T04:34:09.555Z,74.80
2019-04-14T04:36:59.489Z,74.60
2019-04-14T04:39:30.176Z,74.50
2019-04-14T04:41:59.034Z,74.60
2019-04-14T04:44:27.733Z,74.80
2019-04-14T04:46:56.964Z,74.40
2019-04-14T04:49:27.665Z,74.70
2019-04-14T04:51:55.850Z,74.60
2019-04-14T04:54:25.640Z,74.50
2019-04-14T04:56:54.437Z,74.50
2019-04-14T04:59:23.489Z,74.50
2019-04-14T05:01:52.212Z,74.40
2019-04-14T05:04:20.544Z,74.50
2019-04-14T05:06:57.417Z,74.60
2019-04-14T05:09:38.857Z,74.80
2019-04-14T05:12:15.720Z,74.70
2019-04-14T05:15:01.392Z,74.50
2019-04-14T05:17:34.377Z,74.60
2019-04-14T05:20:03.272Z,74.40
2019-04-14T05:22:33.165Z,74.60
2019-04-14T05:25:01.974Z,74.40
2019-04-14T05:27:30.354Z,76.30
2019-04-14T05:29:58.934Z,75.20
2019-04-14T05:32:28.364Z,74.90
2019-04-14T05:34:57.141Z,74.70
2019-04-14T05:37:26.788Z,75.30
2019-04-14T05:39:55.304Z,75.60
2019-04-14T05:42:25.643Z,75.50
2019-04-14T05:44:53.909Z,75.50
2019-04-14T05:47:22.290Z,75.70
2019-04-14T05:49:53.438Z,76.00
2019-04-14T05:52:21.217Z,76.10
2019-04-14T05:54:49.917Z,76.40
2019-04-14T05:57:19.773Z,76.10
2019-04-14T05:59:48.488Z,76.20
2019-04-14T06:02:17.727Z,76.30
2019-04-14T06:04:46.678Z,76.40
2019-04-14T06:07:14.993Z,76.60
2019-04-14T06:09:43.642Z,76.50
2019-04-14T06:12:12.337Z,76.50
2019-04-14T06:14:40.633Z,76.70
2019-04-14T06:17:09.277Z,76.90
2019-04-14T06:19:40.629Z,76.70
2019-04-14T06:22:08.402Z,76.50
2019-04-14T06:24:37.144Z,76.40
2019-04-14T06:27:05.760Z,76.20
2019-04-14T06:29:34.464Z,76.20
2019-04-14T06:32:05.597Z,76.30
2019-04-14T06:34:36.762Z,76.60
2019-04-14T06:37:15.672Z,76.20
2019-04-14T06:39:46.828Z,76.50
2019-04-14T06:42:15.132Z,76.20
2019-04-14T06:44:44.609Z,76.20
2019-04-14T06:47:13.265Z,76.30
2019-04-14T06:49:48.736Z,75.90
2019-04-14T06:52:12.343Z,76.10
2019-04-14T06:54:40.970Z,76.70
2019-04-14T06:57:09.656Z,76.30
2019-04-14T06:59:38.359Z,76.50
2019-04-14T07:02:08.651Z,76.80
2019-04-14T07:04:37.364Z,76.70
2019-04-14T07:07:06.038Z,76.70
2019-04-14T07:09:34.896Z,76.80
2019-04-14T07:12:03.441Z,76.60
2019-04-14T07:14:32.205Z,76.70
2019-04-14T07:17:00.820Z,76.80
2019-04-14T07:19:29.510Z,76.60
2019-04-14T07:21:58.156Z,76.50
2019-04-14T07:24:26.567Z,76.20
2019-04-14T07:26:55.119Z,76.20
2019-04-14T07:29:25.132Z,76.00
2019-04-14T07:34:36.369Z,76.10
2019-04-14T07:37:06.507Z,75.90
2019-04-14T07:39:45.404Z,76.40
2019-04-14T07:42:21.093Z,76.70
2019-04-14T07:44:53.929Z,75.80
2019-04-14T07:47:24.361Z,75.90
2019-04-14T07:49:54.653Z,76.20
2019-04-14T07:52:33.675Z,75.90
2019-04-14T07:55:06.493Z,76.40
2019-04-14T07:57:53.274Z,75.70
2019-04-14T08:00:23.394Z,75.50
2019-04-14T08:02:53.360Z,76.20
2019-04-14T08:05:23.645Z,75.80
2019-04-14T08:07:52.405Z,75.50
2019-04-14T08:10:20.997Z,75.60
2019-04-14T08:12:49.375Z,75.20
2019-04-14T08:15:17.976Z,75.60
2019-04-14T08:17:46.284Z,74.70
2019-04-14T08:20:26.777Z,74.40
2019-04-14T08:22:45.257Z,73.90
2019-04-14T08:25:13.592Z,73.90
2019-04-14T08:27:42.231Z,74.20
2019-04-14T08:30:10.540Z,74.30
2019-04-14T08:32:39.176Z,74.80
2019-04-14T08:35:07.480Z,73.90
2019-04-14T08:37:35.799Z,73.70
2019-04-14T08:40:04.657Z,74.60
2019-04-14T08:42:40.846Z,75.50
2019-04-14T08:45:10.885Z,74.50
2019-04-14T08:47:51.958Z,73.60
2019-04-14T08:50:39.606Z,72.90
2019-04-14T08:53:09.709Z,74.10
2019-04-14T08:55:45.916Z,74.40
2019-04-14T08:58:16.138Z,73.90
2019-04-14T09:00:58.436Z,73.30
2019-04-14T09:03:46.713Z,74.00
2019-04-14T09:06:16.980Z,74.60
2019-04-14T09:09:02.381Z,74.50
2019-04-14T09:11:44.584Z,74.90
2019-04-14T09:14:32.414Z,72.80
2019-04-14T09:17:00.932Z,72.80
2019-04-14T09:19:29.623Z,73.70
2019-04-14T09:21:58.255Z,72.60
2019-04-14T09:24:26.994Z,72.70
2019-04-14T09:26:55.681Z,71.20
2019-04-14T09:29:24.351Z,72.90
2019-04-14T09:31:53.002Z,71.90
2019-04-14T09:34:21.688Z,71.70
2019-04-14T09:36:50.377Z,71.00
2019-04-14T09:39:19.037Z,72.90
2019-04-14T09:41:47.752Z,72.20
2019-04-14T09:44:16.408Z,72.10
2019-04-14T09:46:45.119Z,72.10
2019-04-14T09:49:13.792Z,70.50
2019-04-14T09:51:42.561Z,70.20
2019-04-14T09:54:11.156Z,71.30
2019-04-14T09:56:39.485Z,70.70
2019-04-14T09:59:08.117Z,71.00
2019-04-14T10:01:36.809Z,70.90
2019-04-14T10:04:05.543Z,69.60
2019-04-14T10:06:34.189Z,69.20
2019-04-14T10:09:03.525Z,67.80
2019-04-14T10:11:31.966Z,67.50
2019-04-14T10:14:00.646Z,67.40
2019-04-14T10:16:29.006Z,67.00
2019-04-14T10:18:57.673Z,66.40
2019-04-14T10:21:26.345Z,66.20
2019-04-14T10:23:54.972Z,66.50
2019-04-14T10:26:23.309Z,66.60
2019-04-14T10:28:52.027Z,67.00
2019-04-14T10:31:20.337Z,67.90
2019-04-14T10:33:48.895Z,67.30
2019-04-14T10:36:17.262Z,69.00
2019-04-14T10:38:45.916Z,68.30
2019-04-14T10:41:14.557Z,68.80
2019-04-14T10:43:42.902Z,68.20
2019-04-14T10:46:11.511Z,68.80
2019-04-14T10:48:40.305Z,67.40
2019-04-14T10:51:09.025Z,66.10
2019-04-14T10:53:37.680Z,67.20
2019-04-14T10:56:06.356Z,67.30
2019-04-14T10:58:35.225Z,67.70
2019-04-14T11:01:03.881Z,66.60
2019-04-14T11:03:32.431Z,66.30
2019-04-14T11:06:05.714Z,66.10
2019-04-14T11:08:34.324Z,66.00
2019-04-14T11:11:02.973Z,64.90
2019-04-14T11:13:32.080Z,64.80
2019-04-14T11:16:00.453Z,63.60
2019-04-14T11:18:29.081Z,64.30
2019-04-14T11:20:57.705Z,64.40
2019-04-14T11:23:26.456Z,65.40
2019-04-14T11:25:55.159Z,66.00
2019-04-14T11:28:23.810Z,66.90
2019-04-14T11:30:52.533Z,66.20
2019-04-14T11:33:22.813Z,67.00
2019-04-14T11:35:53.223Z,66.10
2019-04-14T11:38:23.609Z,66.60
2019-04-14T11:40:53.765Z,65.50
2019-04-14T11:43:22.430Z,64.90
2019-04-14T11:45:51.212Z,65.80
2019-04-14T11:48:19.827Z,66.00
2019-04-14T11:50:48.524Z,64.30
2019-04-14T11:53:17.190Z,65.00
2019-04-14T11:55:45.881Z,65.50
2019-04-14T11:58:14.677Z,63.80
2019-04-14T12:01:01.949Z,64.60
2019-04-14T12:03:48.512Z,64.10
2019-04-14T12:06:27.472Z,63.30
2019-04-14T12:09:00.590Z,63.20
2019-04-14T12:11:29.265Z,64.00
2019-04-14T12:13:57.869Z,63.10
2019-04-14T12:16:26.236Z,62.10
2019-04-14T12:18:54.833Z,62.30
2019-04-14T12:21:23.149Z,64.40
2019-04-14T12:23:51.868Z,64.10
2019-04-14T12:26:20.493Z,62.20
2019-04-14T12:28:49.357Z,62.90
2019-04-14T12:31:18.045Z,62.60
2019-04-14T12:33:46.545Z,62.90
2019-04-14T12:36:15.000Z,62.90
2019-04-14T12:38:43.490Z,62.00
2019-04-14T12:41:13.454Z,62.10
2019-04-14T12:43:43.801Z,62.00
2019-04-14T12:46:30.421Z,60.50
2019-04-14T12:49:15.544Z,60.00
2019-04-14T12:51:54.981Z,61.30
2019-04-14T12:54:24.410Z,61.10
2019-04-14T12:56:53.222Z,62.90
2019-04-14T12:59:23.619Z,62.90
2019-04-14T13:02:05.884Z,62.30
2019-04-14T13:04:34.193Z,61.00
2019-04-14T13:07:02.696Z,61.20
2019-04-14T13:09:31.484Z,61.60
2019-04-14T13:12:00.091Z,60.80
2019-04-14T13:14:28.693Z,60.10
2019-04-14T13:16:57.480Z,60.70
2019-04-14T13:19:26.069Z,59.30
2019-04-14T13:21:54.760Z,61.60
2019-04-14T13:24:23.434Z,59.20
2019-04-14T13:26:52.137Z,60.00
2019-04-14T13:29:20.840Z,60.30
2019-04-14T13:31:49.487Z,60.10
2019-04-14T13:34:18.197Z,58.50
2019-04-14T13:36:46.847Z,58.00
2019-04-14T13:39:15.560Z,59.10
2019-04-14T13:41:44.279Z,59.00
2019-04-14T13:44:13.009Z,59.30
2019-04-14T13:46:41.692Z,59.60
2019-04-14T13:49:10.300Z,58.70
2019-04-14T13:51:38.972Z,58.80
2019-04-14T13:54:07.680Z,59.00
2019-04-14T13:56:36.473Z,57.00
2019-04-14T13:59:05.059Z,57.90
2019-04-14T14:01:33.708Z,58.10
2019-04-14T14:04:02.409Z,58.70
2019-04-14T14:06:31.075Z,59.40
2019-04-14T14:08:59.800Z,59.50
2019-04-14T14:11:36.149Z,58.90
2019-04-14T14:14:06.169Z,58.00
2019-04-14T14:16:45.545Z,58.50
2019-04-14T14:19:15.836Z,59.20
2019-04-14T14:22:02.611Z,58.60
2019-04-14T14:24:33.836Z,59.90
2019-04-14T14:27:03.833Z,59.60
2019-04-14T14:29:32.322Z,59.50
2019-04-14T14:32:02.581Z,59.80
2019-04-14T14:34:30.894Z,59.70
2019-04-14T14:36:59.557Z,59.20
2019-04-14T14:39:29.806Z,60.00
2019-04-14T14:42:00.241Z,59.90
2019-04-14T14:44:34.710Z,60.00
2019-04-14T14:47:06.102Z,59.80
2019-04-14T14:49:54.276Z,59.30
2019-04-14T14:52:22.960Z,59.60
2019-04-14T14:54:51.785Z,58.10
2019-04-14T14:57:20.241Z,59.80
2019-04-14T14:59:49.061Z,58.50
2019-04-14T15:02:17.541Z,58.80
2019-04-14T15:04:45.908Z,58.40
2019-04-14T15:07:14.782Z,58.80
2019-04-14T15:09:43.452Z,58.00
2019-04-14T15:12:13.213Z,57.90
2019-04-14T15:14:41.940Z,59.40
2019-04-14T15:17:10.657Z,58.20
2019-04-14T15:19:38.965Z,58.30
2019-04-14T15:22:07.642Z,58.90
2019-04-14T15:24:36.212Z,57.10
2019-04-14T15:27:04.977Z,56.90
2019-04-14T15:29:33.736Z,57.10
2019-04-14T15:32:02.353Z,58.30
2019-04-14T15:34:30.964Z,58.30
2019-04-14T15:36:59.645Z,56.70
2019-04-14T15:39:28.324Z,57.90
2019-04-14T15:41:57.110Z,57.60
2019-04-14T15:44:25.713Z,56.50
2019-04-14T15:46:54.406Z,57.00
2019-04-14T15:49:23.605Z,57.60
2019-04-14T15:51:52.204Z,57.40
2019-04-14T15:54:20.897Z,57.70
2019-04-14T15:57:07.498Z,57.90
2019-04-14T15:59:43.424Z,58.00
2019-04-14T16:02:19.393Z,58.60
2019-04-14T16:05:23.814Z,59.40
2019-04-14T16:07:56.625Z,59.10
2019-04-14T16:10:26.705Z,59.70
2019-04-14T16:13:05.890Z,59.90
2019-04-14T16:15:38.890Z,59.10
2019-04-14T16:18:09.170Z,60.20
2019-04-14T16:20:39.452Z,60.20
2019-04-14T16:23:07.773Z,60.70
2019-04-14T16:25:40.861Z,59.90
2019-04-14T16:28:10.912Z,60.40
2019-04-14T16:30:57.449Z,60.60
2019-04-14T16:33:30.469Z,60.00
2019-04-14T16:35:59.577Z,60.50
2019-04-14T16:38:28.124Z,60.70
2019-04-14T16:40:57.625Z,59.40
2019-04-14T16:43:26.583Z,60.40
2019-04-14T16:45:54.993Z,60.50
2019-04-14T16:48:23.310Z,60.00
2019-04-14T16:50:52.097Z,60.00
2019-04-14T16:53:22.273Z,60.80
2019-04-14T16:55:55.359Z,59.70
2019-04-14T16:58:26.554Z,60.30
2019-04-14T17:00:59.561Z,60.80
2019-04-14T17:03:28.069Z,60.20
2019-04-14T17:05:56.438Z,60.10
2019-04-14T17:08:25.133Z,60.10
2019-04-14T17:10:53.836Z,60.20
2019-04-14T17:13:24.285Z,61.00
2019-04-14T17:16:09.704Z,59.70
2019-04-14T17:18:39.980Z,59.70
2019-04-14T17:21:22.099Z,60.30
2019-04-14T17:23:52.146Z,60.40
2019-04-14T17:26:31.477Z,60.70
2019-04-14T17:29:01.768Z,60.50
2019-04-14T17:31:34.845Z,61.10
2019-04-14T17:34:13.980Z,60.50
2019-04-14T17:36:47.218Z,61.00
2019-04-14T17:39:17.360Z,61.00
2019-04-14T17:41:53.693Z,61.00
2019-04-14T17:44:23.739Z,62.00
2019-04-14T17:47:12.177Z,62.00
2019-04-14T17:49:42.567Z,62.70
2019-04-14T17:52:30.949Z,62.20
2019-04-14T17:55:06.826Z,62.80
2019-04-14T17:57:55.303Z,63.60
2019-04-14T18:00:28.475Z,62.80
2019-04-14T18:03:17.401Z,62.30
2019-04-14T18:06:03.914Z,62.70
2019-04-14T18:08:34.197Z,62.60
2019-04-14T18:11:04.476Z,63.10
2019-04-14T18:13:50.817Z,63.20
2019-04-14T18:16:21.076Z,62.90
2019-04-14T18:19:09.235Z,62.30
2019-04-14T18:21:37.708Z,63.40
2019-04-14T18:24:06.025Z,63.50
2019-04-14T18:26:35.204Z,63.50
2019-04-14T18:29:22.019Z,63.10
2019-04-14T18:32:07.708Z,63.90
2019-04-14T18:34:40.571Z,63.70
2019-04-14T18:37:10.806Z,64.20
2019-04-14T18:39:44.313Z,63.90
2019-04-14T18:42:20.187Z,64.10
2019-04-14T18:45:06.856Z,64.20
2019-04-14T18:47:53.430Z,64.80
2019-04-14T18:50:23.353Z,64.70
2019-04-14T18:53:05.904Z,64.60
2019-04-14T18:55:41.865Z,65.10
2019-04-14T18:58:28.760Z,64.80
2019-04-14T19:00:58.714Z,64.80
2019-04-14T19:03:27.368Z,64.60
2019-04-14T19:05:56.022Z,64.50
2019-04-14T19:08:24.789Z,64.50
2019-04-14T19:11:04.033Z,64.70
2019-04-14T19:13:34.111Z,65.10
2019-04-14T19:16:07.397Z,65.00
2019-04-14T19:18:37.592Z,64.90
2019-04-14T19:21:08.733Z,65.00
2019-04-14T19:23:37.417Z,65.20
2019-04-14T19:26:06.640Z,64.80
2019-04-14T19:28:35.185Z,65.10
2019-04-14T19:31:03.924Z,64.90
2019-04-14T19:33:32.572Z,65.60
2019-04-14T19:36:01.262Z,65.40
2019-04-14T19:38:30.005Z,65.50
2019-04-14T19:40:58.637Z,65.70
2019-04-14T19:43:27.314Z,65.90
2019-04-14T19:45:56.702Z,66.00
2019-04-14T19:48:25.503Z,66.40
2019-04-14T19:50:54.304Z,66.40
2019-04-14T19:53:22.948Z,66.00
2019-04-14T19:55:51.637Z,66.20
2019-04-14T19:58:20.245Z,66.10
2019-04-14T20:00:49.085Z,66.40
2019-04-14T20:03:17.606Z,66.00
2019-04-14T20:05:46.448Z,66.40
2019-04-14T20:08:14.751Z,66.40
2019-04-14T20:10:43.282Z,66.60
2019-04-14T20:13:12.001Z,66.90
2019-04-14T20:15:54.216Z,67.00
2019-04-14T20:18:42.471Z,67.30
2019-04-14T20:21:30.920Z,67.20
2019-04-14T20:24:17.329Z,67.10
2019-04-14T20:26:49.945Z,67.20
2019-04-14T20:29:20.302Z,67.10
2019-04-14T20:31:50.686Z,66.80
2019-04-14T20:34:19.248Z,67.40
2019-04-14T20:36:47.569Z,67.20
2019-04-14T20:39:16.789Z,67.40
2019-04-14T20:41:45.322Z,67.60
2019-04-14T20:44:14.173Z,67.60
2019-04-14T20:46:42.781Z,67.60
2019-04-14T20:49:11.550Z,67.70
2019-04-14T20:51:40.050Z,67.80
2019-04-14T20:54:08.753Z,68.00
2019-04-14T20:56:37.408Z,68.10
2019-04-14T20:59:05.785Z,68.20
2019-04-14T21:01:36.012Z,67.90
2019-04-14T21:04:18.308Z,68.20
2019-04-14T21:06:51.427Z,68.20
2019-04-14T21:09:21.497Z,68.40
2019-04-14T21:11:54.437Z,68.70
2019-04-14T21:14:27.341Z,68.90
2019-04-14T21:17:06.759Z,69.70
2019-04-14T21:19:37.058Z,68.70
2019-04-14T21:22:16.343Z,69.00
2019-04-14T21:24:48.373Z,69.40
2019-04-14T21:27:24.509Z,69.30
2019-04-14T21:30:06.524Z,69.40
2019-04-14T21:32:36.581Z,69.70
2019-04-14T21:35:07.248Z,69.80
2019-04-14T21:37:46.664Z,69.80
2019-04-14T21:40:25.677Z,70.10
2019-04-14T21:42:54.212Z,70.80
2019-04-14T21:45:26.033Z,70.10
2019-04-14T21:47:53.228Z,70.40
2019-04-14T21:50:21.922Z,70.40
2019-04-14T21:52:50.690Z,70.20
2019-04-14T21:55:20.504Z,70.10
2019-04-14T21:57:50.840Z,70.20
2019-04-14T22:00:24.427Z,69.90
2019-04-14T22:03:09.844Z,70.00
2019-04-14T22:05:42.621Z,70.20
2019-04-14T22:08:15.594Z,70.20
2019-04-14T22:10:57.602Z,70.30
2019-04-14T22:13:25.997Z,70.80
2019-04-14T22:15:54.646Z,70.70
2019-04-14T22:18:23.340Z,70.70
2019-04-14T22:20:52.070Z,70.50
2019-04-14T22:23:20.800Z,70.60
2019-04-14T22:25:49.375Z,70.50
2019-04-14T22:28:17.762Z,70.60
2019-04-14T22:30:46.337Z,71.00
2019-04-14T22:33:14.659Z,71.00
2019-04-14T22:35:43.307Z,71.40
2019-04-14T22:38:11.643Z,71.50
2019-04-14T22:40:40.669Z,71.80
2019-04-14T22:43:09.373Z,71.80
2019-04-14T22:45:38.051Z,72.10
2019-04-14T22:48:06.819Z,72.00
2019-04-14T22:50:35.521Z,71.90
2019-04-14T22:53:04.108Z,71.90
2019-04-14T22:55:32.573Z,71.30
2019-04-14T22:58:01.069Z,71.60
2019-04-14T23:00:47.245Z,71.70
2019-04-14T23:03:17.289Z,71.70
2019-04-14T23:05:53.812Z,71.90
2019-04-14T23:08:24.085Z,72.00
2019-04-14T23:11:12.196Z,72.20
2019-04-14T23:13:51.276Z,72.10
2019-04-14T23:16:24.025Z,72.10
2019-04-14T23:19:02.645Z,72.30
2019-04-14T23:21:41.655Z,72.40
2019-04-14T23:24:15.453Z,72.50
2019-04-14T23:26:52.410Z,72.50
2019-04-14T23:29:33.613Z,73.00
2019-04-14T23:32:02.250Z,72.90
2019-04-14T23:34:30.933Z,72.90
2019-04-14T23:36:59.597Z,73.00
2019-04-14T23:39:28.690Z,72.60
2019-04-14T23:41:57.376Z,72.80
2019-04-14T23:44:26.056Z,72.40
2019-04-14T23:46:54.746Z,72.30
2019-04-14T23:49:23.434Z,72.70
2019-04-14T23:51:52.116Z,72.40
2019-04-14T23:54:20.804Z,72.50
2019-04-14T23:56:49.502Z,72.30
2019-04-14T23:59:18.168Z,72.50
